Decoded Metar for LFRI (LA ROCHE-SUR-YON in FRANCE) (IATA:EDM) | Meteo·Mobile Aviation Weather
aviador You're here:

LFRI Decoded Metar

LA ROCHE-SUR-YON in FRANCE
Report Time2019-07-19 18:30:00
UTC Time2019-07-19 18:53:38
Flight Rules vfr VFR
Wind220° at 05 kt
W.Decomp.*RWY 28: 2.6 kt HW 4.2 kt LCW
Visibility9999 m
Phenomena:N/A
Clouds:N/A
Expected CloudBase > 4,000 ft AGL from Temp-Dew spread
CeilingNone
Temp24°C (ISA +10)
Dew Point14°C (54% RH)
AAT23.5°C
QNH1013 hPa
Density Alt1,627 ft
Elevation299 ft
Report Wrong Elevation
Raw Report
METAR LFRI 191830Z AUTO 22005KT 190V250 CAVOK 24/14 Q1013 NOSIG=

Extra information for LFRI:More info

Metar Taf Metar & Taf Last 4 Metars F.Rules Stats Wind Profile Meteogram Temp Stats Airport Information Weather charts Add Link Nearby VenuesMetar ALERT Operation Metar Decoded Social comments